sensor_id;sensor_type;location;lat;lon;timestamp;pressure;altitude;pressure_sealevel;temperature;humidity
58979;BME280;44763;50.464;30.612;2024-02-23T00:01:56;99938.34;;;5.67;100.00
58979;BME280;44763;50.464;30.612;2024-02-23T00:03:57;99935.20;;;5.64;100.00
58979;BME280;44763;50.464;30.612;2024-02-23T00:05:59;99940.43;;;5.64;100.00
58979;BME280;44763;50.464;30.612;2024-02-23T00:08:01;99931.29;;;5.61;100.00
58979;BME280;44763;50.464;30.612;2024-02-23T00:10:04;99933.05;;;5.59;100.00
58979;BME280;44763;50.464;30.612;2024-02-23T00:12:06;99928.10;;;5.55;100.00
58979;BME280;44763;50.464;30.612;2024-02-23T00:14:08;99924.14;;;5.52;100.00
58979;BME280;44763;50.464;30.612;2024-02-23T00:16:10;99921.32;;;5.54;100.00
58979;BME280;44763;50.464;30.612;2024-02-23T00:18:12;99920.30;;;5.55;100.00
58979;BME280;44763;50.464;30.612;2024-02-23T00:20:16;99924.26;;;5.56;100.00
58979;BME280;44763;50.464;30.612;2024-02-23T00:22:18;99917.50;;;5.55;100.00
58979;BME280;44763;50.464;30.612;2024-02-23T00:24:20;99908.77;;;5.54;100.00
58979;BME280;44763;50.464;30.612;2024-02-23T00:26:24;99903.48;;;5.54;100.00
58979;BME280;44763;50.464;30.612;2024-02-23T00:28:26;99897.63;;;5.54;100.00
58979;BME280;44763;50.464;30.612;2024-02-23T00:30:29;99902.23;;;5.56;100.00
58979;BME280;44763;50.464;30.612;2024-02-23T00:32:31;99898.95;;;5.49;100.00
58979;BME280;44763;50.464;30.612;2024-02-23T00:34:33;99901.46;;;5.45;100.00
58979;BME280;44763;50.464;30.612;2024-02-23T00:36:34;99899.66;;;5.40;100.00
58979;BME280;44763;50.464;30.612;2024-02-23T00:38:36;99902.33;;;5.40;100.00
58979;BME280;44763;50.464;30.612;2024-02-23T00:40:38;99896.98;;;5.41;100.00
58979;BME280;44763;50.464;30.612;2024-02-23T00:42:40;99900.16;;;5.42;100.00
58979;BME280;44763;50.464;30.612;2024-02-23T00:44:41;99898.66;;;5.43;100.00
58979;BME280;44763;50.464;30.612;2024-02-23T00:46:43;99907.55;;;5.42;100.00
58979;BME280;44763;50.464;30.612;2024-02-23T00:48:45;99901.48;;;5.43;100.00
58979;BME280;44763;50.464;30.612;2024-02-23T00:50:47;99903.21;;;5.44;100.00
58979;BME280;44763;50.464;30.612;2024-02-23T00:52:48;99898.73;;;5.44;100.00
58979;BME280;44763;50.464;30.612;2024-02-23T00:54:50;99895.60;;;5.41;100.00
58979;BME280;44763;50.464;30.612;2024-02-23T00:56:52;99893.18;;;5.43;100.00
58979;BME280;44763;50.464;30.612;2024-02-23T00:58:58;99899.02;;;5.43;100.00
58979;BME280;44763;50.464;30.612;2024-02-23T01:01:00;99903.42;;;5.45;100.00
58979;BME280;44763;50.464;30.612;2024-02-23T01:03:02;99906.06;;;5.43;100.00
58979;BME280;44763;50.464;30.612;2024-02-23T01:05:04;99897.30;;;5.41;100.00
58979;BME280;44763;50.464;30.612;2024-02-23T01:07:06;99898.42;;;5.41;100.00
58979;BME280;44763;50.464;30.612;2024-02-23T01:09:08;99896.28;;;5.43;100.00
58979;BME280;44763;50.464;30.612;2024-02-23T01:11:10;99888.88;;;5.43;100.00
58979;BME280;44763;50.464;30.612;2024-02-23T01:13:11;99898.66;;;5.45;100.00
58979;BME280;44763;50.464;30.612;2024-02-23T01:15:13;99892.89;;;5.45;100.00
58979;BME280;44763;50.464;30.612;2024-02-23T01:17:15;99894.36;;;5.39;100.00
58979;BME280;44763;50.464;30.612;2024-02-23T01:19:17;99898.83;;;5.35;100.00
58979;BME280;44763;50.464;30.612;2024-02-23T01:21:20;99891.60;;;5.34;100.00
58979;BME280;44763;50.464;30.612;2024-02-23T01:23:22;99891.60;;;5.39;100.00
58979;BME280;44763;50.464;30.612;2024-02-23T01:25:24;99891.76;;;5.40;100.00
58979;BME280;44763;50.464;30.612;2024-02-23T01:27:26;99890.80;;;5.42;100.00
58979;BME280;44763;50.464;30.612;2024-02-23T01:29:27;99894.70;;;5.41;100.00
58979;BME280;44763;50.464;30.612;2024-02-23T01:31:29;99895.59;;;5.41;100.00
58979;BME280;44763;50.464;30.612;2024-02-23T01:33:31;99896.75;;;5.41;100.00
58979;BME280;44763;50.464;30.612;2024-02-23T01:35:33;99890.77;;;5.40;100.00
58979;BME280;44763;50.464;30.612;2024-02-23T01:37:35;99894.66;;;5.36;100.00
58979;BME280;44763;50.464;30.612;2024-02-23T01:39:37;99886.14;;;5.37;100.00
58979;BME280;44763;50.464;30.612;2024-02-23T01:41:39;99882.38;;;5.36;100.00
58979;BME280;44763;50.464;30.612;2024-02-23T01:43:41;99888.09;;;5.34;100.00
58979;BME280;44763;50.464;30.612;2024-02-23T01:45:42;99884.78;;;5.35;100.00
58979;BME280;44763;50.464;30.612;2024-02-23T01:47:44;99886.09;;;5.33;100.00
58979;BME280;44763;50.464;30.612;2024-02-23T01:49:46;99874.65;;;5.32;100.00
58979;BME280;44763;50.464;30.612;2024-02-23T01:51:49;99879.56;;;5.34;100.00
58979;BME280;44763;50.464;30.612;2024-02-23T01:53:51;99878.45;;;5.32;100.00
58979;BME280;44763;50.464;30.612;2024-02-23T01:55:53;99885.98;;;5.29;100.00
58979;BME280;44763;50.464;30.612;2024-02-23T01:57:56;99881.63;;;5.32;100.00
58979;BME280;44763;50.464;30.612;2024-02-23T01:59:58;99880.66;;;5.32;100.00
58979;BME280;44763;50.464;30.612;2024-02-23T02:02:02;99878.77;;;5.32;100.00
58979;BME280;44763;50.464;30.612;2024-02-23T02:04:04;99882.55;;;5.33;100.00
58979;BME280;44763;50.464;30.612;2024-02-23T02:06:06;99880.63;;;5.36;100.00
58979;BME280;44763;50.464;30.612;2024-02-23T02:08:10;99883.40;;;5.36;100.00
58979;BME280;44763;50.464;30.612;2024-02-23T02:10:13;99880.02;;;5.36;100.00
58979;BME280;44763;50.464;30.612;2024-02-23T02:12:15;99878.73;;;5.39;100.00
58979;BME280;44763;50.464;30.612;2024-02-23T02:14:18;99874.45;;;5.39;100.00
58979;BME280;44763;50.464;30.612;2024-02-23T02:16:20;99878.58;;;5.38;100.00
58979;BME280;44763;50.464;30.612;2024-02-23T02:18:21;99867.47;;;5.38;100.00
58979;BME280;44763;50.464;30.612;2024-02-23T02:20:25;99870.32;;;5.38;100.00
58979;BME280;44763;50.464;30.612;2024-02-23T02:22:32;99875.87;;;5.37;100.00
58979;BME280;44763;50.464;30.612;2024-02-23T02:24:35;99875.77;;;5.33;100.00
58979;BME280;44763;50.464;30.612;2024-02-23T02:26:36;99874.55;;;5.32;100.00
58979;BME280;44763;50.464;30.612;2024-02-23T02:28:38;99874.23;;;5.30;100.00
58979;BME280;44763;50.464;30.612;2024-02-23T02:30:40;99863.94;;;5.30;100.00
58979;BME280;44763;50.464;30.612;2024-02-23T02:32:42;99861.66;;;5.27;100.00
58979;BME280;44763;50.464;30.612;2024-02-23T02:34:44;99859.89;;;5.27;100.00
58979;BME280;44763;50.464;30.612;2024-02-23T02:36:46;99858.94;;;5.30;100.00
58979;BME280;44763;50.464;30.612;2024-02-23T02:38:48;99863.02;;;5.29;100.00
58979;BME280;44763;50.464;30.612;2024-02-23T02:40:49;99859.52;;;5.29;100.00
58979;BME280;44763;50.464;30.612;2024-02-23T02:42:51;99861.77;;;5.28;100.00
58979;BME280;44763;50.464;30.612;2024-02-23T02:46:13;99856.68;;;5.13;100.00
58979;BME280;44763;50.464;30.612;2024-02-23T02:48:15;99859.95;;;5.05;100.00
58979;BME280;44763;50.464;30.612;2024-02-23T02:50:17;99858.85;;;5.04;100.00
58979;BME280;44763;50.464;30.612;2024-02-23T02:52:19;99852.48;;;5.05;100.00
58979;BME280;44763;50.464;30.612;2024-02-23T02:54:22;99852.81;;;5.09;100.00
58979;BME280;44763;50.464;30.612;2024-02-23T02:56:24;99855.69;;;5.11;100.00
58979;BME280;44763;50.464;30.612;2024-02-23T02:58:26;99853.61;;;5.12;100.00
58979;BME280;44763;50.464;30.612;2024-02-23T03:00:28;99852.91;;;5.10;100.00
58979;BME280;44763;50.464;30.612;2024-02-23T03:02:32;99851.27;;;5.09;100.00
58979;BME280;44763;50.464;30.612;2024-02-23T03:04:34;99852.61;;;5.09;100.00
58979;BME280;44763;50.464;30.612;2024-02-23T03:06:36;99858.77;;;5.10;100.00
58979;BME280;44763;50.464;30.612;2024-02-23T03:08:38;99862.20;;;5.09;100.00
58979;BME280;44763;50.464;30.612;2024-02-23T03:10:40;99866.85;;;5.10;100.00
58979;BME280;44763;50.464;30.612;2024-02-23T03:12:41;99865.23;;;5.10;100.00
58979;BME280;44763;50.464;30.612;2024-02-23T03:14:44;99865.89;;;5.11;100.00
58979;BME280;44763;50.464;30.612;2024-02-23T03:16:46;99862.46;;;5.11;100.00
58979;BME280;44763;50.464;30.612;2024-02-23T03:18:49;99862.07;;;5.13;100.00
58979;BME280;44763;50.464;30.612;2024-02-23T03:20:52;99867.19;;;5.15;100.00
58979;BME280;44763;50.464;30.612;2024-02-23T03:22:53;99864.87;;;5.15;100.00
58979;BME280;44763;50.464;30.612;2024-02-23T03:24:55;99864.31;;;5.14;100.00
58979;BME280;44763;50.464;30.612;2024-02-23T03:26:57;99865.86;;;5.11;100.00
58979;BME280;44763;50.464;30.612;2024-02-23T03:28:59;99860.71;;;5.11;100.00
58979;BME280;44763;50.464;30.612;2024-02-23T03:31:01;99859.22;;;5.14;100.00
58979;BME280;44763;50.464;30.612;2024-02-23T03:33:02;99860.44;;;5.12;100.00
58979;BME280;44763;50.464;30.612;2024-02-23T03:35:05;99859.65;;;5.16;100.00
58979;BME280;44763;50.464;30.612;2024-02-23T03:37:08;99864.00;;;5.17;100.00
58979;BME280;44763;50.464;30.612;2024-02-23T03:39:09;99861.86;;;5.18;100.00
58979;BME280;44763;50.464;30.612;2024-02-23T03:41:11;99864.20;;;5.18;100.00
58979;BME280;44763;50.464;30.612;2024-02-23T03:43:13;99867.55;;;5.18;100.00
58979;BME280;44763;50.464;30.612;2024-02-23T03:45:15;99864.84;;;5.19;100.00
58979;BME280;44763;50.464;30.612;2024-02-23T03:47:17;99863.71;;;5.19;100.00
58979;BME280;44763;50.464;30.612;2024-02-23T03:49:18;99870.39;;;5.20;100.00
58979;BME280;44763;50.464;30.612;2024-02-23T03:51:20;99869.70;;;5.21;100.00
58979;BME280;44763;50.464;30.612;2024-02-23T03:53:22;99871.80;;;5.22;100.00
58979;BME280;44763;50.464;30.612;2024-02-23T03:55:24;99869.66;;;5.23;100.00
58979;BME280;44763;50.464;30.612;2024-02-23T03:57:26;99873.85;;;5.23;100.00
58979;BME280;44763;50.464;30.612;2024-02-23T03:59:28;99873.03;;;5.26;100.00
58979;BME280;44763;50.464;30.612;2024-02-23T04:01:30;99874.71;;;5.27;100.00
58979;BME280;44763;50.464;30.612;2024-02-23T04:03:32;99872.11;;;5.27;100.00
58979;BME280;44763;50.464;30.612;2024-02-23T04:05:33;99874.05;;;5.21;100.00
58979;BME280;44763;50.464;30.612;2024-02-23T04:07:35;99871.67;;;5.14;100.00
58979;BME280;44763;50.464;30.612;2024-02-23T04:09:37;99870.80;;;5.05;100.00
58979;BME280;44763;50.464;30.612;2024-02-23T04:11:39;99875.86;;;5.04;100.00
58979;BME280;44763;50.464;30.612;2024-02-23T04:13:41;99875.89;;;5.02;100.00
58979;BME280;44763;50.464;30.612;2024-02-23T04:15:43;99869.75;;;5.01;100.00
58979;BME280;44763;50.464;30.612;2024-02-23T04:17:46;99870.31;;;5.02;100.00
58979;BME280;44763;50.464;30.612;2024-02-23T04:19:47;99864.47;;;5.01;100.00
58979;BME280;44763;50.464;30.612;2024-02-23T04:21:49;99863.83;;;4.97;100.00
58979;BME280;44763;50.464;30.612;2024-02-23T04:23:51;99865.55;;;4.95;100.00
58979;BME280;44763;50.464;30.612;2024-02-23T04:25:53;99875.91;;;4.94;100.00
58979;BME280;44763;50.464;30.612;2024-02-23T04:27:56;99873.08;;;4.95;100.00
58979;BME280;44763;50.464;30.612;2024-02-23T04:30:01;99873.80;;;4.94;100.00
58979;BME280;44763;50.464;30.612;2024-02-23T04:32:03;99873.47;;;4.91;100.00
58979;BME280;44763;50.464;30.612;2024-02-23T04:34:05;99878.74;;;4.89;100.00
58979;BME280;44763;50.464;30.612;2024-02-23T04:36:07;99879.77;;;4.87;100.00
58979;BME280;44763;50.464;30.612;2024-02-23T04:38:09;99875.93;;;4.85;100.00
58979;BME280;44763;50.464;30.612;2024-02-23T04:40:11;99871.21;;;4.80;100.00
58979;BME280;44763;50.464;30.612;2024-02-23T04:42:13;99881.66;;;4.81;100.00
58979;BME280;44763;50.464;30.612;2024-02-23T04:44:15;99879.98;;;4.80;100.00
58979;BME280;44763;50.464;30.612;2024-02-23T04:46:17;99884.63;;;4.80;100.00
58979;BME280;44763;50.464;30.612;2024-02-23T04:48:18;99886.45;;;4.78;100.00
58979;BME280;44763;50.464;30.612;2024-02-23T04:50:20;99887.95;;;4.78;100.00
58979;BME280;44763;50.464;30.612;2024-02-23T04:52:22;99887.30;;;4.76;100.00
58979;BME280;44763;50.464;30.612;2024-02-23T04:54:24;99888.59;;;4.77;100.00
58979;BME280;44763;50.464;30.612;2024-02-23T04:56:25;99883.27;;;4.78;100.00
58979;BME280;44763;50.464;30.612;2024-02-23T04:58:28;99883.27;;;4.78;100.00
58979;BME280;44763;50.464;30.612;2024-02-23T05:00:29;99885.36;;;4.76;100.00
58979;BME280;44763;50.464;30.612;2024-02-23T05:02:35;99898.88;;;4.73;100.00
58979;BME280;44763;50.464;30.612;2024-02-23T05:04:37;99887.30;;;4.75;100.00
58979;BME280;44763;50.464;30.612;2024-02-23T05:06:39;99890.65;;;4.73;100.00
58979;BME280;44763;50.464;30.612;2024-02-23T05:08:40;99896.36;;;4.72;100.00
58979;BME280;44763;50.464;30.612;2024-02-23T05:10:42;99900.65;;;4.71;100.00
58979;BME280;44763;50.464;30.612;2024-02-23T05:12:44;99904.63;;;4.74;100.00
58979;BME280;44763;50.464;30.612;2024-02-23T05:14:46;99898.81;;;4.74;100.00
58979;BME280;44763;50.464;30.612;2024-02-23T05:16:47;99907.90;;;4.78;100.00
58979;BME280;44763;50.464;30.612;2024-02-23T05:18:49;99911.17;;;4.80;100.00
58979;BME280;44763;50.464;30.612;2024-02-23T05:20:51;99904.19;;;4.81;100.00
58979;BME280;44763;50.464;30.612;2024-02-23T05:22:55;99902.80;;;4.83;100.00
58979;BME280;44763;50.464;30.612;2024-02-23T05:24:57;99909.47;;;4.84;100.00
58979;BME280;44763;50.464;30.612;2024-02-23T05:26:59;99907.89;;;4.83;100.00
58979;BME280;44763;50.464;30.612;2024-02-23T05:29:03;99915.38;;;4.84;100.00
58979;BME280;44763;50.464;30.612;2024-02-23T05:31:05;99914.65;;;4.85;100.00
58979;BME280;44763;50.464;30.612;2024-02-23T05:33:07;99921.58;;;4.83;100.00
58979;BME280;44763;50.464;30.612;2024-02-23T05:35:10;99918.67;;;4.84;100.00
58979;BME280;44763;50.464;30.612;2024-02-23T05:37:12;99916.44;;;4.85;100.00
58979;BME280;44763;50.464;30.612;2024-02-23T05:39:14;99921.75;;;4.85;100.00
58979;BME280;44763;50.464;30.612;2024-02-23T05:41:17;99920.92;;;4.86;100.00
58979;BME280;44763;50.464;30.612;2024-02-23T05:43:18;99914.95;;;4.87;100.00
58979;BME280;44763;50.464;30.612;2024-02-23T05:45:20;99923.83;;;4.87;100.00
58979;BME280;44763;50.464;30.612;2024-02-23T05:47:23;99922.67;;;4.86;100.00
58979;BME280;44763;50.464;30.612;2024-02-23T05:49:25;99914.06;;;4.84;100.00
58979;BME280;44763;50.464;30.612;2024-02-23T05:51:28;99925.65;;;4.88;100.00
58979;BME280;44763;50.464;30.612;2024-02-23T05:53:33;99921.77;;;4.88;100.00
58979;BME280;44763;50.464;30.612;2024-02-23T05:55:36;99927.51;;;4.92;100.00
58979;BME280;44763;50.464;30.612;2024-02-23T05:57:38;99929.08;;;4.96;100.00
58979;BME280;44763;50.464;30.612;2024-02-23T05:59:40;99936.96;;;5.00;100.00
58979;BME280;44763;50.464;30.612;2024-02-23T06:01:42;99935.55;;;5.01;100.00
58979;BME280;44763;50.464;30.612;2024-02-23T06:03:44;99935.92;;;5.01;100.00
58979;BME280;44763;50.464;30.612;2024-02-23T06:05:46;99925.98;;;5.03;100.00
58979;BME280;44763;50.464;30.612;2024-02-23T06:07:48;99928.33;;;5.06;100.00
58979;BME280;44763;50.464;30.612;2024-02-23T06:09:50;99937.71;;;5.07;100.00
58979;BME280;44763;50.464;30.612;2024-02-23T06:11:51;99937.69;;;5.08;100.00
58979;BME280;44763;50.464;30.612;2024-02-23T06:13:53;99944.98;;;5.09;100.00
58979;BME280;44763;50.464;30.612;2024-02-23T06:15:55;99949.61;;;5.10;100.00
58979;BME280;44763;50.464;30.612;2024-02-23T06:17:57;99941.35;;;5.10;100.00
58979;BME280;44763;50.464;30.612;2024-02-23T06:19:59;99944.20;;;5.13;100.00
58979;BME280;44763;50.464;30.612;2024-02-23T06:22:01;99951.66;;;5.14;100.00
58979;BME280;44763;50.464;30.612;2024-02-23T06:24:03;99951.02;;;5.22;100.00
58979;BME280;44763;50.464;30.612;2024-02-23T06:26:06;99950.71;;;5.26;100.00
58979;BME280;44763;50.464;30.612;2024-02-23T06:28:08;99942.20;;;5.29;100.00
58979;BME280;44763;50.464;30.612;2024-02-23T06:30:10;99950.06;;;5.31;100.00
58979;BME280;44763;50.464;30.612;2024-02-23T06:32:12;99952.45;;;5.32;100.00
58979;BME280;44763;50.464;30.612;2024-02-23T06:34:15;99944.13;;;5.32;100.00
58979;BME280;44763;50.464;30.612;2024-02-23T06:36:18;99948.48;;;5.34;100.00
58979;BME280;44763;50.464;30.612;2024-02-23T06:38:20;99951.04;;;5.31;100.00
58979;BME280;44763;50.464;30.612;2024-02-23T06:40:22;99946.39;;;5.34;100.00
58979;BME280;44763;50.464;30.612;2024-02-23T06:42:25;99946.98;;;5.35;100.00
58979;BME280;44763;50.464;30.612;2024-02-23T06:44:27;99939.17;;;5.34;100.00
58979;BME280;44763;50.464;30.612;2024-02-23T06:46:29;99947.05;;;5.36;100.00
58979;BME280;44763;50.464;30.612;2024-02-23T06:48:31;99952.05;;;5.35;100.00
58979;BME280;44763;50.464;30.612;2024-02-23T06:50:35;99944.13;;;5.34;100.00
58979;BME280;44763;50.464;30.612;2024-02-23T06:52:37;99948.58;;;5.36;100.00
58979;BME280;44763;50.464;30.612;2024-02-23T06:54:39;99945.38;;;5.37;100.00
58979;BME280;44763;50.464;30.612;2024-02-23T06:56:41;99942.90;;;5.38;100.00
58979;BME280;44763;50.464;30.612;2024-02-23T06:58:42;99942.41;;;5.40;100.00
58979;BME280;44763;50.464;30.612;2024-02-23T07:00:44;99932.43;;;5.39;100.00
58979;BME280;44763;50.464;30.612;2024-02-23T07:02:46;99937.18;;;5.41;100.00
58979;BME280;44763;50.464;30.612;2024-02-23T07:04:48;99926.92;;;5.43;100.00
58979;BME280;44763;50.464;30.612;2024-02-23T07:06:49;99924.80;;;5.44;100.00
58979;BME280;44763;50.464;30.612;2024-02-23T07:08:51;99931.31;;;5.48;100.00
58979;BME280;44763;50.464;30.612;2024-02-23T07:10:53;99933.75;;;5.53;100.00
58979;BME280;44763;50.464;30.612;2024-02-23T07:12:55;99942.02;;;5.55;100.00
58979;BME280;44763;50.464;30.612;2024-02-23T07:14:58;99942.91;;;5.56;100.00
58979;BME280;44763;50.464;30.612;2024-02-23T07:17:00;99942.48;;;5.59;100.00
58979;BME280;44763;50.464;30.612;2024-02-23T07:19:02;99952.30;;;5.62;100.00
58979;BME280;44763;50.464;30.612;2024-02-23T07:21:04;99949.05;;;5.68;100.00
58979;BME280;44763;50.464;30.612;2024-02-23T07:23:06;99955.56;;;5.72;100.00
58979;BME280;44763;50.464;30.612;2024-02-23T07:25:08;99957.55;;;5.73;100.00
58979;BME280;44763;50.464;30.612;2024-02-23T07:27:10;99955.63;;;5.69;100.00
58979;BME280;44763;50.464;30.612;2024-02-23T07:29:12;99962.54;;;5.69;100.00
58979;BME280;44763;50.464;30.612;2024-02-23T07:31:16;99955.04;;;5.72;100.00
58979;BME280;44763;50.464;30.612;2024-02-23T07:33:19;99956.95;;;5.73;100.00
58979;BME280;44763;50.464;30.612;2024-02-23T07:35:21;99962.83;;;5.71;100.00
58979;BME280;44763;50.464;30.612;2024-02-23T07:37:23;99957.57;;;5.73;100.00
58979;BME280;44763;50.464;30.612;2024-02-23T07:39:24;99972.70;;;5.73;100.00
58979;BME280;44763;50.464;30.612;2024-02-23T07:41:26;99970.06;;;5.73;100.00
58979;BME280;44763;50.464;30.612;2024-02-23T07:43:28;99982.84;;;5.72;100.00
58979;BME280;44763;50.464;30.612;2024-02-23T07:45:31;99972.85;;;5.71;100.00
58979;BME280;44763;50.464;30.612;2024-02-23T07:47:34;99972.86;;;5.73;100.00
58979;BME280;44763;50.464;30.612;2024-02-23T07:49:37;99967.99;;;5.72;100.00
58979;BME280;44763;50.464;30.612;2024-02-23T07:51:38;99975.46;;;5.73;100.00
58979;BME280;44763;50.464;30.612;2024-02-23T07:53:40;99979.23;;;5.76;100.00
58979;BME280;44763;50.464;30.612;2024-02-23T07:55:42;99972.33;;;5.75;100.00
58979;BME280;44763;50.464;30.612;2024-02-23T07:57:44;99971.98;;;5.73;100.00
58979;BME280;44763;50.464;30.612;2024-02-23T07:59:46;99978.17;;;5.73;100.00
58979;BME280;44763;50.464;30.612;2024-02-23T08:01:50;99974.67;;;5.73;100.00
58979;BME280;44763;50.464;30.612;2024-02-23T08:03:51;99977.73;;;5.75;100.00
58979;BME280;44763;50.464;30.612;2024-02-23T08:05:53;99974.23;;;5.75;100.00
58979;BME280;44763;50.464;30.612;2024-02-23T08:07:55;99966.47;;;5.75;100.00
58979;BME280;44763;50.464;30.612;2024-02-23T08:09:59;99969.54;;;5.82;100.00
58979;BME280;44763;50.464;30.612;2024-02-23T08:12:00;99981.81;;;5.85;100.00
58979;BME280;44763;50.464;30.612;2024-02-23T08:14:05;99980.61;;;5.89;100.00
58979;BME280;44763;50.464;30.612;2024-02-23T08:16:08;99980.52;;;5.95;100.00
58979;BME280;44763;50.464;30.612;2024-02-23T08:18:09;99983.21;;;6.00;100.00
58979;BME280;44763;50.464;30.612;2024-02-23T08:20:12;99978.09;;;6.01;100.00
58979;BME280;44763;50.464;30.612;2024-02-23T08:22:13;99979.51;;;6.01;100.00
58979;BME280;44763;50.464;30.612;2024-02-23T08:24:15;99984.51;;;6.02;100.00
58979;BME280;44763;50.464;30.612;2024-02-23T08:26:20;99987.02;;;6.04;100.00
58979;BME280;44763;50.464;30.612;2024-02-23T08:28:22;99994.52;;;6.06;100.00
58979;BME280;44763;50.464;30.612;2024-02-23T08:30:24;99991.84;;;6.10;100.00
58979;BME280;44763;50.464;30.612;2024-02-23T08:32:26;99983.14;;;6.09;100.00
58979;BME280;44763;50.464;30.612;2024-02-23T08:34:28;100003.91;;;6.09;100.00
58979;BME280;44763;50.464;30.612;2024-02-23T08:36:30;100009.34;;;6.06;100.00
58979;BME280;44763;50.464;30.612;2024-02-23T08:38:32;100004.07;;;6.04;100.00
58979;BME280;44763;50.464;30.612;2024-02-23T08:40:34;100000.38;;;6.02;100.00
58979;BME280;44763;50.464;30.612;2024-02-23T08:42:39;99999.78;;;6.03;100.00
58979;BME280;44763;50.464;30.612;2024-02-23T08:44:41;100006.77;;;6.00;100.00
58979;BME280;44763;50.464;30.612;2024-02-23T08:46:43;100005.10;;;6.03;100.00
58979;BME280;44763;50.464;30.612;2024-02-23T08:48:45;100008.11;;;6.03;100.00
58979;BME280;44763;50.464;30.612;2024-02-23T08:50:46;100005.77;;;6.07;100.00
58979;BME280;44763;50.464;30.612;2024-02-23T08:52:49;100004.61;;;6.06;100.00
58979;BME280;44763;50.464;30.612;2024-02-23T08:54:51;99999.61;;;6.03;100.00
58979;BME280;44763;50.464;30.612;2024-02-23T08:56:53;100012.91;;;6.08;100.00
58979;BME280;44763;50.464;30.612;2024-02-23T08:58:55;100017.20;;;6.07;100.00
58979;BME280;44763;50.464;30.612;2024-02-23T09:00:57;100018.47;;;6.10;100.00
58979;BME280;44763;50.464;30.612;2024-02-23T09:02:59;100014.66;;;6.11;100.00
58979;BME280;44763;50.464;30.612;2024-02-23T09:05:01;100018.23;;;6.14;100.00
58979;BME280;44763;50.464;30.612;2024-02-23T09:07:03;100018.48;;;6.12;100.00
58979;BME280;44763;50.464;30.612;2024-02-23T09:09:05;100019.02;;;6.10;100.00
58979;BME280;44763;50.464;30.612;2024-02-23T09:11:07;100026.90;;;6.09;100.00
58979;BME280;44763;50.464;30.612;2024-02-23T09:13:10;100023.13;;;6.08;100.00
58979;BME280;44763;50.464;30.612;2024-02-23T09:15:12;100024.22;;;6.09;100.00
58979;BME280;44763;50.464;30.612;2024-02-23T09:17:14;100027.27;;;6.10;100.00
58979;BME280;44763;50.464;30.612;2024-02-23T09:19:16;100029.31;;;6.09;100.00
58979;BME280;44763;50.464;30.612;2024-02-23T09:21:18;100025.80;;;6.11;100.00
58979;BME280;44763;50.464;30.612;2024-02-23T09:23:20;100030.33;;;6.11;100.00
58979;BME280;44763;50.464;30.612;2024-02-23T09:25:22;100025.73;;;6.10;100.00
58979;BME280;44763;50.464;30.612;2024-02-23T09:27:24;100035.83;;;6.09;100.00
58979;BME280;44763;50.464;30.612;2024-02-23T09:29:27;100039.02;;;6.11;100.00
58979;BME280;44763;50.464;30.612;2024-02-23T09:31:28;100041.39;;;6.07;100.00
58979;BME280;44763;50.464;30.612;2024-02-23T09:33:35;100037.09;;;6.04;100.00
58979;BME280;44763;50.464;30.612;2024-02-23T09:35:37;100039.20;;;5.99;100.00
58979;BME280;44763;50.464;30.612;2024-02-23T09:37:39;100028.52;;;6.00;100.00
58979;BME280;44763;50.464;30.612;2024-02-23T09:39:41;100026.83;;;5.99;100.00
58979;BME280;44763;50.464;30.612;2024-02-23T09:41:43;100044.14;;;6.02;100.00
58979;BME280;44763;50.464;30.612;2024-02-23T09:43:46;100049.15;;;6.01;100.00
58979;BME280;44763;50.464;30.612;2024-02-23T09:45:53;100049.24;;;6.02;100.00
58979;BME280;44763;50.464;30.612;2024-02-23T09:47:56;100051.58;;;6.06;100.00
58979;BME280;44763;50.464;30.612;2024-02-23T09:50:00;100050.41;;;6.10;100.00
58979;BME280;44763;50.464;30.612;2024-02-23T09:52:07;100049.61;;;6.15;100.00
58979;BME280;44763;50.464;30.612;2024-02-23T09:54:11;100057.55;;;6.14;100.00
58979;BME280;44763;50.464;30.612;2024-02-23T09:56:13;100054.34;;;6.16;100.00
58979;BME280;44763;50.464;30.612;2024-02-23T09:58:19;100050.90;;;6.13;100.00
58979;BME280;44763;50.464;30.612;2024-02-23T10:00:23;100047.86;;;6.15;100.00
58979;BME280;44763;50.464;30.612;2024-02-23T10:02:25;100061.77;;;6.17;100.00
58979;BME280;44763;50.464;30.612;2024-02-23T10:04:27;100045.64;;;6.15;100.00
58979;BME280;44763;50.464;30.612;2024-02-23T10:06:31;100060.70;;;6.17;100.00
58979;BME280;44763;50.464;30.612;2024-02-23T10:08:33;100058.19;;;6.19;100.00
58979;BME280;44763;50.464;30.612;2024-02-23T10:10:35;100054.14;;;6.22;100.00
58979;BME280;44763;50.464;30.612;2024-02-23T10:12:40;100047.95;;;6.24;100.00
58979;BME280;44763;50.464;30.612;2024-02-23T10:14:42;100042.23;;;6.25;100.00
58979;BME280;44763;50.464;30.612;2024-02-23T10:16:44;100046.98;;;6.30;100.00
58979;BME280;44763;50.464;30.612;2024-02-23T10:18:49;100053.14;;;6.32;100.00
58979;BME280;44763;50.464;30.612;2024-02-23T10:20:51;100053.23;;;6.36;100.00
58979;BME280;44763;50.464;30.612;2024-02-23T10:22:54;100054.05;;;6.36;100.00
58979;BME280;44763;50.464;30.612;2024-02-23T10:24:56;100051.48;;;6.35;100.00
58979;BME280;44763;50.464;30.612;2024-02-23T10:27:00;100044.73;;;6.36;100.00
58979;BME280;44763;50.464;30.612;2024-02-23T10:29:04;100043.44;;;6.40;100.00
58979;BME280;44763;50.464;30.612;2024-02-23T10:31:06;100050.05;;;6.42;100.00
58979;BME280;44763;50.464;30.612;2024-02-23T10:33:14;100049.45;;;6.43;100.00
58979;BME280;44763;50.464;30.612;2024-02-23T10:35:16;100048.16;;;6.45;100.00
58979;BME280;44763;50.464;30.612;2024-02-23T10:37:19;100039.08;;;6.49;100.00
58979;BME280;44763;50.464;30.612;2024-02-23T10:39:24;100049.73;;;6.52;100.00